sensor_id;sensor_type;location;lat;lon;timestamp;temperature;humidity
46932;DHT22;32670;51.464;11.964;2023-04-19T00:01:30;22.00;54.70
46932;DHT22;32670;51.464;11.964;2023-04-19T00:03:55;22.00;54.40
46932;DHT22;32670;51.464;11.964;2023-04-19T00:06:21;22.00;54.50
46932;DHT22;32670;51.464;11.964;2023-04-19T00:08:46;22.00;54.50
46932;DHT22;32670;51.464;11.964;2023-04-19T00:11:12;22.00;54.50
46932;DHT22;32670;51.464;11.964;2023-04-19T00:13:37;22.00;54.50
46932;DHT22;32670;51.464;11.964;2023-04-19T00:16:04;22.00;54.50
46932;DHT22;32670;51.464;11.964;2023-04-19T00:18:29;22.00;54.60
46932;DHT22;32670;51.464;11.964;2023-04-19T00:20:55;22.00;54.50
46932;DHT22;32670;51.464;11.964;2023-04-19T00:23:20;22.00;54.40
46932;DHT22;32670;51.464;11.964;2023-04-19T00:25:47;22.00;54.50
46932;DHT22;32670;51.464;11.964;2023-04-19T00:28:13;22.00;54.40
46932;DHT22;32670;51.464;11.964;2023-04-19T00:30:38;22.00;54.50
46932;DHT22;32670;51.464;11.964;2023-04-19T00:33:04;22.00;54.40
46932;DHT22;32670;51.464;11.964;2023-04-19T00:35:29;22.00;54.30
46932;DHT22;32670;51.464;11.964;2023-04-19T00:37:55;22.00;54.40
46932;DHT22;32670;51.464;11.964;2023-04-19T00:40:20;22.00;54.60
46932;DHT22;32670;51.464;11.964;2023-04-19T00:42:45;22.00;54.60
46932;DHT22;32670;51.464;11.964;2023-04-19T00:45:11;22.00;54.50
46932;DHT22;32670;51.464;11.964;2023-04-19T00:47:37;22.00;54.30
46932;DHT22;32670;51.464;11.964;2023-04-19T00:50:03;22.00;54.30
46932;DHT22;32670;51.464;11.964;2023-04-19T00:52:29;22.10;54.70
46932;DHT22;32670;51.464;11.964;2023-04-19T00:54:54;22.10;54.70
46932;DHT22;32670;51.464;11.964;2023-04-19T00:57:21;22.10;54.70
46932;DHT22;32670;51.464;11.964;2023-04-19T00:59:47;22.10;54.50
46932;DHT22;32670;51.464;11.964;2023-04-19T01:02:13;22.10;54.60
46932;DHT22;32670;51.464;11.964;2023-04-19T01:04:39;22.10;54.70
46932;DHT22;32670;51.464;11.964;2023-04-19T01:07:04;22.10;54.80
46932;DHT22;32670;51.464;11.964;2023-04-19T01:09:31;22.10;54.70
46932;DHT22;32670;51.464;11.964;2023-04-19T01:11:56;22.10;54.70
46932;DHT22;32670;51.464;11.964;2023-04-19T01:14:22;22.10;54.60
46932;DHT22;32670;51.464;11.964;2023-04-19T01:16:47;22.20;55.00
46932;DHT22;32670;51.464;11.964;2023-04-19T01:19:13;22.20;54.80
46932;DHT22;32670;51.464;11.964;2023-04-19T01:21:38;22.10;54.60
46932;DHT22;32670;51.464;11.964;2023-04-19T01:24:05;22.20;54.70
46932;DHT22;32670;51.464;11.964;2023-04-19T01:26:30;22.20;54.80
46932;DHT22;32670;51.464;11.964;2023-04-19T01:28:56;22.20;54.80
46932;DHT22;32670;51.464;11.964;2023-04-19T01:31:21;22.10;54.90
46932;DHT22;32670;51.464;11.964;2023-04-19T01:33:46;22.20;55.00
46932;DHT22;32670;51.464;11.964;2023-04-19T01:36:12;22.20;54.80
46932;DHT22;32670;51.464;11.964;2023-04-19T01:38:37;22.20;54.90
46932;DHT22;32670;51.464;11.964;2023-04-19T01:41:03;22.20;55.00
46932;DHT22;32670;51.464;11.964;2023-04-19T01:43:28;22.20;54.90
46932;DHT22;32670;51.464;11.964;2023-04-19T01:45:54;22.20;55.00
46932;DHT22;32670;51.464;11.964;2023-04-19T01:48:19;22.20;55.00
46932;DHT22;32670;51.464;11.964;2023-04-19T01:50:45;22.20;54.90
46932;DHT22;32670;51.464;11.964;2023-04-19T01:53:10;22.20;54.90
46932;DHT22;32670;51.464;11.964;2023-04-19T01:55:36;22.20;54.90
46932;DHT22;32670;51.464;11.964;2023-04-19T01:58:01;22.20;54.90
46932;DHT22;32670;51.464;11.964;2023-04-19T02:00:27;22.20;54.80
46932;DHT22;32670;51.464;11.964;2023-04-19T02:02:52;22.20;54.80
46932;DHT22;32670;51.464;11.964;2023-04-19T02:05:18;22.20;54.80
46932;DHT22;32670;51.464;11.964;2023-04-19T02:07:43;22.20;54.80
46932;DHT22;32670;51.464;11.964;2023-04-19T02:10:09;22.30;54.90
46932;DHT22;32670;51.464;11.964;2023-04-19T02:12:35;22.30;55.10
46932;DHT22;32670;51.464;11.964;2023-04-19T02:15:01;22.20;55.00
46932;DHT22;32670;51.464;11.964;2023-04-19T02:17:27;22.30;55.10
46932;DHT22;32670;51.464;11.964;2023-04-19T02:19:52;22.30;55.20
46932;DHT22;32670;51.464;11.964;2023-04-19T02:22:18;22.30;55.10
46932;DHT22;32670;51.464;11.964;2023-04-19T02:24:44;22.30;55.10
46932;DHT22;32670;51.464;11.964;2023-04-19T02:27:10;22.30;55.10
46932;DHT22;32670;51.464;11.964;2023-04-19T02:29:36;22.30;55.20
46932;DHT22;32670;51.464;11.964;2023-04-19T02:32:02;22.30;55.20
46932;DHT22;32670;51.464;11.964;2023-04-19T02:34:30;22.30;55.20
46932;DHT22;32670;51.464;11.964;2023-04-19T02:36:56;22.30;55.00
46932;DHT22;32670;51.464;11.964;2023-04-19T02:39:21;22.30;55.00
46932;DHT22;32670;51.464;11.964;2023-04-19T02:41:46;22.30;55.00
46932;DHT22;32670;51.464;11.964;2023-04-19T02:44:12;22.30;55.00
46932;DHT22;32670;51.464;11.964;2023-04-19T02:46:37;22.40;55.20
46932;DHT22;32670;51.464;11.964;2023-04-19T02:49:03;22.30;55.10
46932;DHT22;32670;51.464;11.964;2023-04-19T02:51:29;22.40;55.10
46932;DHT22;32670;51.464;11.964;2023-04-19T02:53:54;22.40;55.10
46932;DHT22;32670;51.464;11.964;2023-04-19T02:56:20;22.30;55.10
46932;DHT22;32670;51.464;11.964;2023-04-19T02:58:45;22.40;55.00
46932;DHT22;32670;51.464;11.964;2023-04-19T03:01:11;22.40;55.20
46932;DHT22;32670;51.464;11.964;2023-04-19T03:03:36;22.40;55.30
46932;DHT22;32670;51.464;11.964;2023-04-19T03:06:02;22.40;55.20
46932;DHT22;32670;51.464;11.964;2023-04-19T03:08:28;22.40;55.20
46932;DHT22;32670;51.464;11.964;2023-04-19T03:10:53;22.40;55.20
46932;DHT22;32670;51.464;11.964;2023-04-19T03:13:19;22.40;55.20
46932;DHT22;32670;51.464;11.964;2023-04-19T03:15:44;22.40;55.40
46932;DHT22;32670;51.464;11.964;2023-04-19T03:18:09;22.30;55.10
46932;DHT22;32670;51.464;11.964;2023-04-19T03:20:35;22.40;55.30
46932;DHT22;32670;51.464;11.964;2023-04-19T03:23:00;22.40;55.50
46932;DHT22;32670;51.464;11.964;2023-04-19T03:25:26;22.40;55.30
46932;DHT22;32670;51.464;11.964;2023-04-19T03:27:52;22.40;55.30
46932;DHT22;32670;51.464;11.964;2023-04-19T03:30:17;22.40;55.90
46932;DHT22;32670;51.464;11.964;2023-04-19T03:32:43;22.40;55.30
46932;DHT22;32670;51.464;11.964;2023-04-19T03:35:08;22.40;55.40
46932;DHT22;32670;51.464;11.964;2023-04-19T03:37:34;22.40;55.30
46932;DHT22;32670;51.464;11.964;2023-04-19T03:40:00;22.30;55.30
46932;DHT22;32670;51.464;11.964;2023-04-19T03:42:26;22.40;55.40
46932;DHT22;32670;51.464;11.964;2023-04-19T03:44:51;22.30;55.40
46932;DHT22;32670;51.464;11.964;2023-04-19T03:47:16;22.30;55.30
46932;DHT22;32670;51.464;11.964;2023-04-19T03:49:42;22.40;55.30
46932;DHT22;32670;51.464;11.964;2023-04-19T03:52:07;22.40;55.40
46932;DHT22;32670;51.464;11.964;2023-04-19T03:54:33;22.40;55.40
46932;DHT22;32670;51.464;11.964;2023-04-19T03:56:58;22.30;55.40
46932;DHT22;32670;51.464;11.964;2023-04-19T03:59:25;22.40;55.80
46932;DHT22;32670;51.464;11.964;2023-04-19T04:01:50;22.40;55.70
46932;DHT22;32670;51.464;11.964;2023-04-19T04:04:15;22.40;55.70
46932;DHT22;32670;51.464;11.964;2023-04-19T04:06:41;22.40;55.60
46932;DHT22;32670;51.464;11.964;2023-04-19T04:09:06;22.30;55.50
46932;DHT22;32670;51.464;11.964;2023-04-19T04:11:32;22.30;55.60
46932;DHT22;32670;51.464;11.964;2023-04-19T04:13:57;22.40;55.60
46932;DHT22;32670;51.464;11.964;2023-04-19T04:16:23;22.40;55.70
46932;DHT22;32670;51.464;11.964;2023-04-19T04:18:48;22.40;55.70
46932;DHT22;32670;51.464;11.964;2023-04-19T04:21:14;22.40;55.60
46932;DHT22;32670;51.464;11.964;2023-04-19T04:23:39;22.40;55.60
46932;DHT22;32670;51.464;11.964;2023-04-19T04:26:06;22.40;55.70
46932;DHT22;32670;51.464;11.964;2023-04-19T04:28:34;22.40;55.80
46932;DHT22;32670;51.464;11.964;2023-04-19T04:31:00;22.40;55.90
46932;DHT22;32670;51.464;11.964;2023-04-19T04:33:26;22.40;55.80
46932;DHT22;32670;51.464;11.964;2023-04-19T04:35:53;22.40;55.60
46932;DHT22;32670;51.464;11.964;2023-04-19T04:38:19;22.40;55.30
46932;DHT22;32670;51.464;11.964;2023-04-19T04:40:49;22.40;55.20
46932;DHT22;32670;51.464;11.964;2023-04-19T04:43:15;22.40;55.60
46932;DHT22;32670;51.464;11.964;2023-04-19T04:45:41;22.40;55.50
46932;DHT22;32670;51.464;11.964;2023-04-19T04:48:08;22.40;55.60
46932;DHT22;32670;51.464;11.964;2023-04-19T04:50:34;22.50;55.70
46932;DHT22;32670;51.464;11.964;2023-04-19T04:52:59;22.40;55.60
46932;DHT22;32670;51.464;11.964;2023-04-19T04:55:24;22.50;55.50
46932;DHT22;32670;51.464;11.964;2023-04-19T04:57:50;22.50;55.30
46932;DHT22;32670;51.464;11.964;2023-04-19T05:00:16;22.40;55.00
46932;DHT22;32670;51.464;11.964;2023-04-19T05:02:41;22.40;55.20
46932;DHT22;32670;51.464;11.964;2023-04-19T05:05:07;22.40;55.20
46932;DHT22;32670;51.464;11.964;2023-04-19T05:07:35;22.50;55.10
46932;DHT22;32670;51.464;11.964;2023-04-19T05:10:00;22.40;55.20
46932;DHT22;32670;51.464;11.964;2023-04-19T05:12:26;22.50;55.50
46932;DHT22;32670;51.464;11.964;2023-04-19T05:14:51;22.50;55.50
46932;DHT22;32670;51.464;11.964;2023-04-19T05:17:17;22.40;55.50
46932;DHT22;32670;51.464;11.964;2023-04-19T05:19:43;22.50;55.50
46932;DHT22;32670;51.464;11.964;2023-04-19T05:22:08;22.50;55.50
46932;DHT22;32670;51.464;11.964;2023-04-19T05:24:34;22.50;55.40
46932;DHT22;32670;51.464;11.964;2023-04-19T05:27:00;22.50;55.40
46932;DHT22;32670;51.464;11.964;2023-04-19T05:29:26;22.50;55.40
46932;DHT22;32670;51.464;11.964;2023-04-19T05:31:51;22.50;55.40
46932;DHT22;32670;51.464;11.964;2023-04-19T05:34:17;22.50;55.50
46932;DHT22;32670;51.464;11.964;2023-04-19T05:36:42;22.50;55.50
46932;DHT22;32670;51.464;11.964;2023-04-19T05:39:07;22.50;55.50
46932;DHT22;32670;51.464;11.964;2023-04-19T05:41:33;22.60;55.20
46932;DHT22;32670;51.464;11.964;2023-04-19T05:43:59;22.60;55.10
46932;DHT22;32670;51.464;11.964;2023-04-19T05:46:24;22.50;54.80
46932;DHT22;32670;51.464;11.964;2023-04-19T05:48:50;22.50;54.60
46932;DHT22;32670;51.464;11.964;2023-04-19T05:51:15;22.50;54.60
46932;DHT22;32670;51.464;11.964;2023-04-19T05:53:43;22.50;54.90
46932;DHT22;32670;51.464;11.964;2023-04-19T05:56:09;22.50;54.70
46932;DHT22;32670;51.464;11.964;2023-04-19T05:58:34;22.60;54.50
46932;DHT22;32670;51.464;11.964;2023-04-19T06:01:00;22.50;48.30
46932;DHT22;32670;51.464;11.964;2023-04-19T06:03:26;22.10;41.90
46932;DHT22;32670;51.464;11.964;2023-04-19T06:05:51;21.70;39.10
46932;DHT22;32670;51.464;11.964;2023-04-19T06:08:17;21.40;38.40
46932;DHT22;32670;51.464;11.964;2023-04-19T06:10:43;21.10;37.30
46932;DHT22;32670;51.464;11.964;2023-04-19T06:13:11;20.90;35.70
46932;DHT22;32670;51.464;11.964;2023-04-19T06:15:36;20.60;36.00
46932;DHT22;32670;51.464;11.964;2023-04-19T06:18:04;20.40;35.30
46932;DHT22;32670;51.464;11.964;2023-04-19T06:20:37;20.20;34.70
46932;DHT22;32670;51.464;11.964;2023-04-19T06:23:03;20.10;34.80
46932;DHT22;32670;51.464;11.964;2023-04-19T06:25:29;20.00;34.00
46932;DHT22;32670;51.464;11.964;2023-04-19T06:27:55;19.90;34.50
46932;DHT22;32670;51.464;11.964;2023-04-19T06:30:20;19.80;34.40
46932;DHT22;32670;51.464;11.964;2023-04-19T06:32:46;19.70;34.00
46932;DHT22;32670;51.464;11.964;2023-04-19T06:35:11;19.60;34.00
46932;DHT22;32670;51.464;11.964;2023-04-19T06:37:37;19.60;34.60
46932;DHT22;32670;51.464;11.964;2023-04-19T06:40:03;19.60;34.30
46932;DHT22;32670;51.464;11.964;2023-04-19T06:42:33;19.50;34.20
46932;DHT22;32670;51.464;11.964;2023-04-19T06:44:58;19.40;34.30
46932;DHT22;32670;51.464;11.964;2023-04-19T06:47:24;19.40;34.10
46932;DHT22;32670;51.464;11.964;2023-04-19T06:49:49;19.30;34.30
46932;DHT22;32670;51.464;11.964;2023-04-19T06:52:14;19.30;34.30
46932;DHT22;32670;51.464;11.964;2023-04-19T06:54:40;19.30;34.20
46932;DHT22;32670;51.464;11.964;2023-04-19T06:57:05;19.20;34.30
46932;DHT22;32670;51.464;11.964;2023-04-19T06:59:31;19.10;34.40
46932;DHT22;32670;51.464;11.964;2023-04-19T07:01:57;19.00;34.60
46932;DHT22;32670;51.464;11.964;2023-04-19T07:04:24;19.00;34.70
46932;DHT22;32670;51.464;11.964;2023-04-19T07:06:50;19.10;34.50
46932;DHT22;32670;51.464;11.964;2023-04-19T07:09:16;18.90;34.70
46932;DHT22;32670;51.464;11.964;2023-04-19T07:11:41;19.00;34.70
46932;DHT22;32670;51.464;11.964;2023-04-19T07:14:07;19.00;34.70
46932;DHT22;32670;51.464;11.964;2023-04-19T07:16:32;18.90;34.70
46932;DHT22;32670;51.464;11.964;2023-04-19T07:18:58;18.90;34.90
46932;DHT22;32670;51.464;11.964;2023-04-19T07:21:23;18.80;34.80
46932;DHT22;32670;51.464;11.964;2023-04-19T07:23:52;18.90;35.00
46932;DHT22;32670;51.464;11.964;2023-04-19T07:26:18;18.80;34.80
46932;DHT22;32670;51.464;11.964;2023-04-19T07:28:43;18.80;34.50
46932;DHT22;32670;51.464;11.964;2023-04-19T07:31:14;18.80;34.50
46932;DHT22;32670;51.464;11.964;2023-04-19T07:33:40;18.70;34.40
46932;DHT22;32670;51.464;11.964;2023-04-19T07:36:06;18.60;34.70
46932;DHT22;32670;51.464;11.964;2023-04-19T07:38:32;18.60;34.50
46932;DHT22;32670;51.464;11.964;2023-04-19T07:40:57;18.70;34.80
46932;DHT22;32670;51.464;11.964;2023-04-19T07:43:23;18.70;34.70
46932;DHT22;32670;51.464;11.964;2023-04-19T07:45:48;18.70;34.90
46932;DHT22;32670;51.464;11.964;2023-04-19T07:48:14;18.70;34.70
46932;DHT22;32670;51.464;11.964;2023-04-19T07:50:39;18.60;34.40
46932;DHT22;32670;51.464;11.964;2023-04-19T07:53:05;18.60;34.20
46932;DHT22;32670;51.464;11.964;2023-04-19T07:55:30;18.50;34.30
46932;DHT22;32670;51.464;11.964;2023-04-19T07:57:55;18.40;34.10
46932;DHT22;32670;51.464;11.964;2023-04-19T08:00:21;18.40;34.60
46932;DHT22;32670;51.464;11.964;2023-04-19T08:02:47;18.40;34.50
46932;DHT22;32670;51.464;11.964;2023-04-19T08:05:14;18.40;34.50
46932;DHT22;32670;51.464;11.964;2023-04-19T08:07:41;18.40;34.50
46932;DHT22;32670;51.464;11.964;2023-04-19T08:10:07;18.40;34.60
46932;DHT22;32670;51.464;11.964;2023-04-19T08:12:33;18.40;34.60
46932;DHT22;32670;51.464;11.964;2023-04-19T08:14:59;18.40;34.10
46932;DHT22;32670;51.464;11.964;2023-04-19T08:17:25;18.40;34.30
46932;DHT22;32670;51.464;11.964;2023-04-19T08:19:51;18.40;34.60
46932;DHT22;32670;51.464;11.964;2023-04-19T08:22:16;18.30;34.20
46932;DHT22;32670;51.464;11.964;2023-04-19T08:24:43;18.30;34.50
46932;DHT22;32670;51.464;11.964;2023-04-19T08:27:11;18.30;34.50
46932;DHT22;32670;51.464;11.964;2023-04-19T08:29:37;18.30;34.50
46932;DHT22;32670;51.464;11.964;2023-04-19T08:32:05;18.30;34.60
46932;DHT22;32670;51.464;11.964;2023-04-19T08:34:34;18.20;34.60
46932;DHT22;32670;51.464;11.964;2023-04-19T08:37:00;18.30;34.70
46932;DHT22;32670;51.464;11.964;2023-04-19T08:39:26;18.30;34.60
46932;DHT22;32670;51.464;11.964;2023-04-19T08:41:52;18.30;34.80
46932;DHT22;32670;51.464;11.964;2023-04-19T08:44:20;18.30;34.80
46932;DHT22;32670;51.464;11.964;2023-04-19T08:46:47;18.40;36.20
46932;DHT22;32670;51.464;11.964;2023-04-19T08:49:15;18.60;36.80
46932;DHT22;32670;51.464;11.964;2023-04-19T08:51:42;18.70;37.60
46932;DHT22;32670;51.464;11.964;2023-04-19T08:54:08;18.90;37.50
46932;DHT22;32670;51.464;11.964;2023-04-19T08:56:35;19.00;37.50
46932;DHT22;32670;51.464;11.964;2023-04-19T08:59:01;19.10;37.70
46932;DHT22;32670;51.464;11.964;2023-04-19T09:01:26;19.20;37.80
46932;DHT22;32670;51.464;11.964;2023-04-19T09:03:52;19.30;37.90
46932;DHT22;32670;51.464;11.964;2023-04-19T09:06:17;19.30;37.90
46932;DHT22;32670;51.464;11.964;2023-04-19T09:08:42;19.40;38.00
46932;DHT22;32670;51.464;11.964;2023-04-19T09:11:08;19.40;38.00
46932;DHT22;32670;51.464;11.964;2023-04-19T09:13:33;19.40;38.10
46932;DHT22;32670;51.464;11.964;2023-04-19T09:16:03;19.50;38.20
46932;DHT22;32670;51.464;11.964;2023-04-19T09:18:29;19.50;38.20
46932;DHT22;32670;51.464;11.964;2023-04-19T09:20:54;19.60;38.30
46932;DHT22;32670;51.464;11.964;2023-04-19T09:23:24;19.60;38.40
46932;DHT22;32670;51.464;11.964;2023-04-19T09:25:55;19.60;38.40
46932;DHT22;32670;51.464;11.964;2023-04-19T09:28:22;19.70;38.50
46932;DHT22;32670;51.464;11.964;2023-04-19T09:30:48;19.70;39.20
46932;DHT22;32670;51.464;11.964;2023-04-19T09:33:33;19.70;38.60
46932;DHT22;32670;51.464;11.964;2023-04-19T09:35:59;19.70;38.70
46932;DHT22;32670;51.464;11.964;2023-04-19T09:38:25;19.70;38.80
46932;DHT22;32670;51.464;11.964;2023-04-19T09:40:51;19.80;38.90
46932;DHT22;32670;51.464;11.964;2023-04-19T09:43:23;19.80;39.00
46932;DHT22;32670;51.464;11.964;2023-04-19T09:45:50;19.80;39.10
46932;DHT22;32670;51.464;11.964;2023-04-19T09:48:15;19.80;39.20
46932;DHT22;32670;51.464;11.964;2023-04-19T09:50:58;19.80;39.20
46932;DHT22;32670;51.464;11.964;2023-04-19T09:53:26;19.80;39.30
46932;DHT22;32670;51.464;11.964;2023-04-19T09:55:52;19.90;39.30
46932;DHT22;32670;51.464;11.964;2023-04-19T09:58:19;19.90;39.40
46932;DHT22;32670;51.464;11.964;2023-04-19T10:00:45;19.90;39.70
46932;DHT22;32670;51.464;11.964;2023-04-19T10:03:15;19.90;39.70
46932;DHT22;32670;51.464;11.964;2023-04-19T10:05:42;19.90;40.20
46932;DHT22;32670;51.464;11.964;2023-04-19T10:08:09;20.00;39.90
46932;DHT22;32670;51.464;11.964;2023-04-19T10:10:35;20.00;39.90
46932;DHT22;32670;51.464;11.964;2023-04-19T10:13:07;20.00;40.10
46932;DHT22;32670;51.464;11.964;2023-04-19T10:15:34;20.00;40.00
46932;DHT22;32670;51.464;11.964;2023-04-19T10:18:01;20.00;40.20
46932;DHT22;32670;51.464;11.964;2023-04-19T10:22:57;20.00;40.10
46932;DHT22;32670;51.464;11.964;2023-04-19T10:25:29;20.00;40.00
46932;DHT22;32670;51.464;11.964;2023-04-19T10:27:56;20.10;40.20
46932;DHT22;32670;51.464;11.964;2023-04-19T10:30:22;20.10;40.30
46932;DHT22;32670;51.464;11.964;2023-04-19T10:32:54;20.10;40.20
46932;DHT22;32670;51.464;11.964;2023-04-19T10:35:34;20.10;40.30
46932;DHT22;32670;51.464;11.964;2023-04-19T10:38:10;20.10;40.30
46932;DHT22;32670;51.464;11.964;2023-04-19T10:40:59;20.10;40.40
46932;DHT22;32670;51.464;11.964;2023-04-19T10:43:29;20.10;40.90
46932;DHT22;32670;51.464;11.964;2023-04-19T10:46:07;20.10;40.40
46932;DHT22;32670;51.464;11.964;2023-04-19T10:48:34;20.10;40.30
46932;DHT22;32670;51.464;11.964;2023-04-19T10:51:14;20.20;40.50
46932;DHT22;32670;51.464;11.964;2023-04-19T10:53:54;20.20;40.50
46932;DHT22;32670;51.464;11.964;2023-04-19T11:01:41;20.20;40.50
46932;DHT22;32670;51.464;11.964;2023-04-19T11:11:52;20.30;40.70
46932;DHT22;32670;51.464;11.964;2023-04-19T11:14:19;20.30;40.70
46932;DHT22;32670;51.464;11.964;2023-04-19T11:16:45;20.30;40.70
46932;DHT22;32670;51.464;11.964;2023-04-19T11:19:18;20.20;40.60
46932;DHT22;32670;51.464;11.964;2023-04-19T11:21:47;20.30;40.60
46932;DHT22;32670;51.464;11.964;2023-04-19T11:24:14;20.30;40.70
46932;DHT22;32670;51.464;11.964;2023-04-19T11:26:45;20.30;40.70
46932;DHT22;32670;51.464;11.964;2023-04-19T11:29:11;20.30;40.70
46932;DHT22;32670;51.464;11.964;2023-04-19T11:31:37;20.30;40.60
46932;DHT22;32670;51.464;11.964;2023-04-19T11:34:02;20.30;40.70
46932;DHT22;32670;51.464;11.964;2023-04-19T11:36:28;20.30;40.70
46932;DHT22;32670;51.464;11.964;2023-04-19T11:38:56;20.40;40.70
46932;DHT22;32670;51.464;11.964;2023-04-19T11:41:22;20.30;40.70
46932;DHT22;32670;51.464;11.964;2023-04-19T11:43:47;20.40;40.80
46932;DHT22;32670;51.464;11.964;2023-04-19T11:46:13;20.40;40.80
46932;DHT22;32670;51.464;11.964;2023-04-19T11:48:51;20.40;40.70
46932;DHT22;32670;51.464;11.964;2023-04-19T11:51:17;20.40;40.70
46932;DHT22;32670;51.464;11.964;2023-04-19T11:53:43;20.40;40.80
46932;DHT22;32670;51.464;11.964;2023-04-19T11:56:08;20.40;40.70
46932;DHT22;32670;51.464;11.964;2023-04-19T11:58:42;20.40;40.80
46932;DHT22;32670;51.464;11.964;2023-04-19T12:01:19;20.40;40.80
46932;DHT22;32670;51.464;11.964;2023-04-19T12:03:47;20.40;40.70
46932;DHT22;32670;51.464;11.964;2023-04-19T12:06:17;20.40;40.80
46932;DHT22;32670;51.464;11.964;2023-04-19T12:08:46;20.40;40.70
46932;DHT22;32670;51.464;11.964;2023-04-19T12:11:12;20.40;40.80
46932;DHT22;32670;51.464;11.964;2023-04-19T12:13:38;20.40;40.80
46932;DHT22;32670;51.464;11.964;2023-04-19T12:16:09;20.40;40.80
46932;DHT22;32670;51.464;11.964;2023-04-19T12:18:42;20.40;40.80
46932;DHT22;32670;51.464;11.964;2023-04-19T12:21:10;20.40;40.80
46932;DHT22;32670;51.464;11.964;2023-04-19T12:23:36;20.50;40.80
46932;DHT22;32670;51.464;11.964;2023-04-19T12:26:03;20.40;40.70
46932;DHT22;32670;51.464;11.964;2023-04-19T12:28:32;20.50;40.90
46932;DHT22;32670;51.464;11.964;2023-04-19T12:30:57;20.40;40.80
46932;DHT22;32670;51.464;11.964;2023-04-19T12:33:22;20.50;40.90
46932;DHT22;32670;51.464;11.964;2023-04-19T12:35:48;20.50;40.90
46932;DHT22;32670;51.464;11.964;2023-04-19T12:38:13;20.50;40.80
46932;DHT22;32670;51.464;11.964;2023-04-19T12:40:39;20.50;40.80
46932;DHT22;32670;51.464;11.964;2023-04-19T12:43:05;20.50;40.90
46932;DHT22;32670;51.464;11.964;2023-04-19T12:45:32;20.50;40.90
46932;DHT22;32670;51.464;11.964;2023-04-19T12:47:57;20.50;40.90
46932;DHT22;32670;51.464;11.964;2023-04-19T12:50:23;20.50;40.90
46932;DHT22;32670;51.464;11.964;2023-04-19T12:52:48;20.50;40.90
46932;DHT22;32670;51.464;11.964;2023-04-19T12:55:16;20.50;40.90
46932;DHT22;32670;51.464;11.964;2023-04-19T12:57:41;20.50;40.90
46932;DHT22;32670;51.464;11.964;2023-04-19T13:00:08;20.50;40.80
46932;DHT22;32670;51.464;11.964;2023-04-19T13:02:35;20.50;41.30
46932;DHT22;32670;51.464;11.964;2023-04-19T13:05:00;20.60;41.10
46932;DHT22;32670;51.464;11.964;2023-04-19T13:07:26;20.60;41.00
46932;DHT22;32670;51.464;11.964;2023-04-19T13:09:52;20.50;41.00
46932;DHT22;32670;51.464;11.964;2023-04-19T13:12:18;20.60;40.90
46932;DHT22;32670;51.464;11.964;2023-04-19T13:14:44;20.60;41.00
46932;DHT22;32670;51.464;11.964;2023-04-19T13:17:12;20.60;41.30
46932;DHT22;32670;51.464;11.964;2023-04-19T13:19:37;20.60;41.20
46932;DHT22;32670;51.464;11.964;2023-04-19T13:22:03;20.60;41.10
46932;DHT22;32670;51.464;11.964;2023-04-19T13:24:28;20.60;41.10
46932;DHT22;32670;51.464;11.964;2023-04-19T13:26:54;20.60;41.10
46932;DHT22;32670;51.464;11.964;2023-04-19T13:29:19;20.60;41.00
46932;DHT22;32670;51.464;11.964;2023-04-19T13:31:45;20.60;41.00
46932;DHT22;32670;51.464;11.964;2023-04-19T13:34:11;20.60;41.10
46932;DHT22;32670;51.464;11.964;2023-04-19T13:36:36;20.60;41.10
46932;DHT22;32670;51.464;11.964;2023-04-19T13:39:02;20.60;41.10
46932;DHT22;32670;51.464;11.964;2023-04-19T13:41:28;20.60;41.10
46932;DHT22;32670;51.464;11.964;2023-04-19T13:43:53;20.60;41.10
46932;DHT22;32670;51.464;11.964;2023-04-19T13:46:20;20.60;41.10
46932;DHT22;32670;51.464;11.964;2023-04-19T13:48:45;20.60;41.10
46932;DHT22;32670;51.464;11.964;2023-04-19T13:51:11;20.60;41.00
46932;DHT22;32670;51.464;11.964;2023-04-19T13:53:36;20.60;41.00
46932;DHT22;32670;51.464;11.964;2023-04-19T13:56:02;20.70;41.10
46932;DHT22;32670;51.464;11.964;2023-04-19T13:58:28;20.60;40.90
46932;DHT22;32670;51.464;11.964;2023-04-19T14:00:53;20.70;41.10
46932;DHT22;32670;51.464;11.964;2023-04-19T14:03:20;20.60;41.00
46932;DHT22;32670;51.464;11.964;2023-04-19T14:05:45;20.70;41.00
46932;DHT22;32670;51.464;11.964;2023-04-19T14:08:10;20.70;41.00
46932;DHT22;32670;51.464;11.964;2023-04-19T14:10:36;20.70;41.00
46932;DHT22;32670;51.464;11.964;2023-04-19T14:13:02;20.60;40.90
46932;DHT22;32670;51.464;11.964;2023-04-19T14:15:27;20.70;41.00
46932;DHT22;32670;51.464;11.964;2023-04-19T14:17:53;20.70;41.10
46932;DHT22;32670;51.464;11.964;2023-04-19T14:20:19;20.70;41.10
46932;DHT22;32670;51.464;11.964;2023-04-19T14:22:45;20.70;41.10
46932;DHT22;32670;51.464;11.964;2023-04-19T14:25:11;20.70;41.10
46932;DHT22;32670;51.464;11.964;2023-04-19T14:27:40;20.70;41.10
46932;DHT22;32670;51.464;11.964;2023-04-19T14:30:06;20.70;41.10
46932;DHT22;32670;51.464;11.964;2023-04-19T14:32:32;20.70;41.10
46932;DHT22;32670;51.464;11.964;2023-04-19T14:34:58;20.70;41.10
46932;DHT22;32670;51.464;11.964;2023-04-19T14:37:24;20.70;41.10
46932;DHT22;32670;51.464;11.964;2023-04-19T14:39:49;20.70;41.00
46932;DHT22;32670;51.464;11.964;2023-04-19T14:42:14;20.70;41.00
46932;DHT22;32670;51.464;11.964;2023-04-19T14:44:40;20.70;41.00
46932;DHT22;32670;51.464;11.964;2023-04-19T14:47:06;20.70;41.10
46932;DHT22;32670;51.464;11.964;2023-04-19T14:49:31;20.70;41.00
46932;DHT22;32670;51.464;11.964;2023-04-19T14:51:57;20.70;41.10
46932;DHT22;32670;51.464;11.964;2023-04-19T14:54:22;20.80;41.10
46932;DHT22;32670;51.464;11.964;2023-04-19T14:56:48;20.70;41.10
46932;DHT22;32670;51.464;11.964;2023-04-19T14:59:13;20.70;41.10
46932;DHT22;32670;51.464;11.964;2023-04-19T15:01:39;20.70;41.00
46932;DHT22;32670;51.464;11.964;2023-04-19T15:04:04;20.70;41.10
46932;DHT22;32670;51.464;11.964;2023-04-19T15:06:30;20.70;41.10
46932;DHT22;32670;51.464;11.964;2023-04-19T15:08:56;20.70;41.10
46932;DHT22;32670;51.464;11.964;2023-04-19T15:11:21;20.80;41.10
46932;DHT22;32670;51.464;11.964;2023-04-19T15:13:47;20.80;41.10
46932;DHT22;32670;51.464;11.964;2023-04-19T15:16:12;20.80;41.60
46932;DHT22;32670;51.464;11.964;2023-04-19T15:18:38;20.80;41.10
46932;DHT22;32670;51.464;11.964;2023-04-19T15:21:04;20.70;41.00
46932;DHT22;32670;51.464;11.964;2023-04-19T15:23:29;20.80;41.00
46932;DHT22;32670;51.464;11.964;2023-04-19T15:25:55;20.80;41.10